createdAt,value
2023-04-02T00:01:24.070Z,98825.44
2023-04-02T00:03:50.551Z,98838.25
2023-04-02T00:06:26.341Z,98838.28
2023-04-02T00:08:52.913Z,98836.50
2023-04-02T00:11:31.078Z,98833.75
2023-04-02T00:14:01.477Z,98838.84
2023-04-02T00:16:29.013Z,98834.13
2023-04-02T00:19:01.412Z,98839.16
2023-04-02T00:21:30.891Z,98828.13
2023-04-02T00:24:00.869Z,98838.00
2023-04-02T00:26:37.168Z,98832.66
2023-04-02T00:29:07.722Z,98830.09
2023-04-02T00:31:37.760Z,98825.88
2023-04-02T00:34:07.018Z,98824.44
2023-04-02T00:36:34.651Z,98821.47
2023-04-02T00:39:04.273Z,98829.78
2023-04-02T00:41:32.413Z,98821.47
2023-04-02T00:43:59.539Z,98810.03
2023-04-02T00:46:32.901Z,98820.47
2023-04-02T00:49:12.586Z,98819.50
2023-04-02T00:51:44.434Z,98814.03
2023-04-02T00:54:13.057Z,98810.34
2023-04-02T00:56:46.177Z,98814.03
2023-04-02T00:59:42.984Z,98809.50
2023-04-02T01:02:15.603Z,98815.94
2023-04-02T01:04:42.129Z,98820.53
2023-04-02T01:07:11.132Z,98816.81
2023-04-02T01:10:18.129Z,98822.22
2023-04-02T01:12:56.013Z,98827.56
2023-04-02T01:15:32.596Z,98823.03
2023-04-02T01:18:33.262Z,98828.25
2023-04-02T01:21:08.193Z,98829.22
2023-04-02T01:23:57.784Z,98831.03
2023-04-02T01:26:34.915Z,98831.03
2023-04-02T01:29:12.033Z,98841.84
2023-04-02T01:31:39.572Z,98838.53
2023-04-02T01:34:09.777Z,98841.66
2023-04-02T01:36:54.784Z,98838.22
2023-04-02T01:39:31.133Z,98847.56
2023-04-02T01:41:57.643Z,98852.44
2023-04-02T01:44:32.210Z,98851.81
2023-04-02T01:46:59.428Z,98834.63
2023-04-02T01:49:26.324Z,98848.41
2023-04-02T01:51:55.255Z,98834.81
2023-04-02T01:54:22.959Z,98850.41
2023-04-02T01:56:51.597Z,98844.81
2023-04-02T01:59:21.342Z,98842.81
2023-04-02T02:02:14.689Z,98853.63
2023-04-02T02:04:41.574Z,98856.59
2023-04-02T02:07:15.726Z,98856.78
2023-04-02T02:09:43.501Z,98856.97
2023-04-02T02:12:13.977Z,98856.97
2023-04-02T02:14:46.854Z,98847.16
2023-04-02T02:17:27.457Z,98861.69
2023-04-02T02:19:59.583Z,98855.50
2023-04-02T02:22:36.060Z,98852.72
2023-04-02T02:25:06.603Z,98855.50
2023-04-02T02:27:42.990Z,98848.03
2023-04-02T02:30:21.020Z,98850.28
2023-04-02T02:33:19.272Z,98852.72
2023-04-02T02:35:59.735Z,98851.09
2023-04-02T02:38:44.297Z,98843.44
2023-04-02T02:41:20.910Z,98852.63
2023-04-02T02:43:59.591Z,98854.88
2023-04-02T02:46:29.150Z,98851.34
2023-04-02T02:48:57.655Z,98844.69
2023-04-02T02:51:42.365Z,98857.13
2023-04-02T02:54:09.058Z,98854.53
2023-04-02T02:56:42.133Z,98854.25
2023-04-02T02:59:10.873Z,98858.94
2023-04-02T03:01:38.283Z,98857.22
2023-04-02T03:04:05.176Z,98854.50
2023-04-02T03:06:31.810Z,98864.59
2023-04-02T03:09:16.084Z,98864.41
2023-04-02T03:12:09.913Z,98865.13
2023-04-02T03:15:05.587Z,98870.06
2023-04-02T03:18:13.443Z,98870.78
2023-04-02T03:20:55.524Z,98877.88
2023-04-02T03:23:27.334Z,98883.00
2023-04-02T03:26:04.794Z,98894.78
2023-04-02T03:28:34.517Z,98888.44
2023-04-02T03:31:08.258Z,98888.03
2023-04-02T03:33:44.332Z,98891.38
2023-04-02T03:36:32.075Z,98892.09
2023-04-02T03:39:12.176Z,98896.69
2023-04-02T03:41:51.850Z,98883.81
2023-04-02T03:45:00.115Z,98889.25
2023-04-02T03:47:36.629Z,98886.91
2023-04-02T03:50:07.490Z,98888.88
2023-04-02T03:52:37.300Z,98887.88
2023-04-02T03:55:14.362Z,98895.34
2023-04-02T03:57:47.930Z,98885.34
2023-04-02T04:00:22.648Z,98885.72
2023-04-02T04:03:02.455Z,98889.03
2023-04-02T04:05:36.223Z,98896.22
2023-04-02T04:08:07.188Z,98882.19
2023-04-02T04:10:35.045Z,98885.78
2023-04-02T04:13:08.641Z,98893.06
2023-04-02T04:15:54.910Z,98894.88
2023-04-02T04:18:33.571Z,98884.50
2023-04-02T04:21:03.444Z,98880.84
2023-04-02T04:23:38.381Z,98876.13
2023-04-02T04:26:21.219Z,98890.97
2023-04-02T04:29:01.274Z,98896.19
2023-04-02T04:31:35.078Z,98906.94
2023-04-02T04:34:08.614Z,98904.50
2023-04-02T04:36:51.026Z,98891.91
2023-04-02T04:39:26.977Z,98905.31
2023-04-02T04:41:55.370Z,98905.56
2023-04-02T04:44:35.513Z,98907.97
2023-04-02T04:47:15.317Z,98906.78
2023-04-02T04:49:58.241Z,98897.53
2023-04-02T04:52:38.457Z,98897.97
2023-04-02T04:55:26.920Z,98899.41
2023-04-02T04:58:25.785Z,98906.91
2023-04-02T05:01:07.507Z,98912.81
2023-04-02T05:03:34.081Z,98907.91
2023-04-02T05:06:39.776Z,98909.50
2023-04-02T05:09:20.125Z,98912.25
2023-04-02T05:11:55.369Z,98908.78
2023-04-02T05:14:33.635Z,98903.94
2023-04-02T05:17:50.054Z,98904.81
2023-04-02T05:20:27.454Z,98905.88
2023-04-02T05:23:12.402Z,98909.47
2023-04-02T05:25:52.170Z,98897.75
2023-04-02T05:28:32.112Z,98895.84
2023-04-02T05:31:06.897Z,98900.78
2023-04-02T05:33:36.160Z,98900.47
2023-04-02T05:36:09.548Z,98902.31
2023-04-02T05:38:38.936Z,98911.94
2023-04-02T05:41:27.894Z,98921.94
2023-04-02T05:44:22.982Z,98922.28
2023-04-02T05:46:57.628Z,98922.94
2023-04-02T05:49:53.151Z,98918.72
2023-04-02T05:52:28.071Z,98955.50
2023-04-02T05:55:06.919Z,98904.25
2023-04-02T05:57:47.093Z,98908.50
2023-04-02T06:00:31.668Z,98911.22
2023-04-02T06:03:05.006Z,98914.25
2023-04-02T06:05:39.738Z,98921.34
2023-04-02T06:08:11.860Z,98913.13
2023-04-02T06:10:47.956Z,98923.72
2023-04-02T06:13:18.970Z,98911.13
2023-04-02T06:15:47.669Z,98927.88
2023-04-02T06:18:24.898Z,98922.59
2023-04-02T06:20:52.077Z,98926.13
2023-04-02T06:23:42.051Z,98937.97
2023-04-02T06:26:19.600Z,98944.59
2023-04-02T06:29:04.017Z,98925.56
2023-04-02T06:31:39.103Z,98924.31
2023-04-02T06:34:11.285Z,98932.88
2023-04-02T06:36:37.770Z,98925.63
2023-04-02T06:39:18.145Z,98923.75
2023-04-02T06:41:44.629Z,98934.03
2023-04-02T06:44:21.549Z,98925.19
2023-04-02T06:46:58.908Z,98939.00
2023-04-02T06:49:31.479Z,98942.75
2023-04-02T06:52:01.081Z,98943.00
2023-04-02T06:54:27.596Z,98934.69
2023-04-02T06:56:55.456Z,98930.19
2023-04-02T06:59:23.018Z,98920.06
2023-04-02T07:01:57.785Z,98924.97
2023-04-02T07:04:25.238Z,98935.88
2023-04-02T07:06:51.842Z,98947.38
2023-04-02T07:09:19.168Z,98933.19
2023-04-02T07:11:45.680Z,98936.47
2023-04-02T07:14:13.281Z,98931.84
2023-04-02T07:16:42.671Z,98926.44
2023-04-02T07:19:18.689Z,98918.03
2023-04-02T07:21:45.223Z,98926.63
2023-04-02T07:24:11.819Z,98922.50
2023-04-02T07:26:38.399Z,98922.84
2023-04-02T07:29:08.753Z,98924.47
2023-04-02T07:31:35.454Z,98937.25
2023-04-02T07:34:02.101Z,98915.66
2023-04-02T07:36:29.502Z,98908.91
2023-04-02T07:38:56.022Z,98913.78
2023-04-02T07:41:22.600Z,98913.97
2023-04-02T07:43:49.171Z,98907.94
2023-04-02T07:46:15.754Z,98907.06
2023-04-02T07:48:43.569Z,98906.75
2023-04-02T07:51:24.981Z,98906.22
2023-04-02T07:53:52.237Z,98906.22
2023-04-02T07:56:19.680Z,98906.09
2023-04-02T07:58:46.725Z,98911.81
2023-04-02T08:01:27.741Z,98911.00
2023-04-02T08:03:56.668Z,98905.75
2023-04-02T08:06:24.128Z,98903.50
2023-04-02T08:08:50.994Z,98912.78
2023-04-02T08:11:17.516Z,98900.19
2023-04-02T08:13:44.453Z,98909.25
2023-04-02T08:16:11.495Z,98898.91
2023-04-02T08:18:38.643Z,98909.69
2023-04-02T08:21:10.343Z,98906.91
2023-04-02T08:23:37.397Z,98917.47
2023-04-02T08:26:04.718Z,98923.28
2023-04-02T08:28:31.281Z,98891.34
2023-04-02T08:30:57.741Z,98895.94
2023-04-02T08:33:24.334Z,98904.88
2023-04-02T08:35:50.924Z,98907.06
2023-04-02T08:38:19.287Z,98901.88
2023-04-02T08:40:49.579Z,98917.50
2023-04-02T08:43:18.749Z,98916.66
2023-04-02T08:45:54.215Z,98905.56
2023-04-02T08:48:20.891Z,98909.44
2023-04-02T08:50:47.451Z,98913.69
2023-04-02T08:53:19.420Z,98903.41
2023-04-02T08:55:58.668Z,98897.50
2023-04-02T08:58:39.815Z,98905.22
2023-04-02T09:01:09.896Z,98903.97
2023-04-02T09:03:42.669Z,98902.34
2023-04-02T09:06:13.408Z,98908.22
2023-04-02T09:08:43.901Z,98898.13
2023-04-02T09:11:13.092Z,98903.72
2023-04-02T09:13:45.720Z,98904.50
2023-04-02T09:16:16.214Z,98902.47
2023-04-02T09:18:44.835Z,98906.69
2023-04-02T09:21:20.736Z,98904.16
2023-04-02T09:23:47.920Z,98897.22
2023-04-02T09:26:22.889Z,98910.59
2023-04-02T09:28:59.591Z,98895.88
2023-04-02T09:31:34.280Z,98892.47
2023-04-02T09:34:00.776Z,98890.09
2023-04-02T09:36:38.145Z,98888.00
2023-04-02T09:39:12.109Z,98891.72
2023-04-02T09:41:38.637Z,98893.75
2023-04-02T09:44:34.658Z,98895.47
2023-04-02T09:47:06.825Z,98894.75
2023-04-02T09:49:36.817Z,98895.94
2023-04-02T09:52:28.856Z,98889.00
2023-04-02T09:55:07.557Z,98902.31
2023-04-02T09:57:34.134Z,98892.72
2023-04-02T10:00:30.663Z,98900.75
2023-04-02T10:03:21.969Z,98893.41
2023-04-02T10:05:49.092Z,98887.22
2023-04-02T10:08:21.298Z,98896.59
2023-04-02T10:10:53.465Z,98907.28
2023-04-02T10:13:51.235Z,98896.84
2023-04-02T10:16:27.267Z,98902.75
2023-04-02T10:19:14.393Z,98886.66
2023-04-02T10:21:43.286Z,98883.56
2023-04-02T10:24:14.885Z,98889.16
2023-04-02T10:27:06.010Z,98899.38
2023-04-02T10:29:49.852Z,98895.81
2023-04-02T10:32:35.297Z,98887.91
2023-04-02T10:35:03.301Z,98898.13
2023-04-02T10:37:32.851Z,98881.59
2023-04-02T10:40:26.028Z,98879.09
2023-04-02T10:43:30.614Z,98890.09
2023-04-02T10:46:03.162Z,98894.09
2023-04-02T10:48:56.835Z,98896.06
2023-04-02T10:51:53.441Z,98896.84
2023-04-02T10:54:19.900Z,98894.44
2023-04-02T10:56:50.937Z,98905.22
2023-04-02T10:59:30.044Z,98899.56
2023-04-02T11:02:01.358Z,98897.44
2023-04-02T11:04:33.212Z,98889.28
2023-04-02T11:07:15.038Z,98903.50
2023-04-02T11:09:45.239Z,98893.41
2023-04-02T11:12:41.724Z,98896.97
2023-04-02T11:15:17.088Z,98896.41
2023-04-02T11:17:45.353Z,98895.34
2023-04-02T11:20:48.879Z,98909.34
2023-04-02T11:23:19.201Z,98905.56
2023-04-02T11:25:46.550Z,98905.34
2023-04-02T11:28:19.092Z,98909.13
2023-04-02T11:30:48.532Z,98897.53
2023-04-02T11:33:44.796Z,98889.75
2023-04-02T11:36:49.946Z,98902.00
2023-04-02T11:39:46.042Z,98904.25
2023-04-02T11:42:18.306Z,98890.44
2023-04-02T11:44:45.221Z,98903.72
2023-04-02T11:47:21.801Z,98895.03
2023-04-02T11:50:00.949Z,98912.22
2023-04-02T11:52:37.647Z,98893.59
2023-04-02T11:55:24.114Z,98897.44
2023-04-02T11:58:15.127Z,98902.88
2023-04-02T12:01:07.650Z,98905.34
2023-04-02T12:03:52.714Z,98900.75
2023-04-02T12:06:38.562Z,98902.69
2023-04-02T12:09:23.200Z,98911.69
2023-04-02T12:11:52.063Z,98893.28
2023-04-02T12:14:37.777Z,98908.31
2023-04-02T12:17:15.278Z,98901.56
2023-04-02T12:19:47.807Z,98906.47
2023-04-02T12:22:23.863Z,98907.16
2023-04-02T12:24:51.248Z,98910.25
2023-04-02T12:27:20.925Z,98904.09
2023-04-02T12:29:47.390Z,98903.13
2023-04-02T12:32:31.597Z,98914.63
2023-04-02T12:34:58.986Z,98915.78
2023-04-02T12:37:28.330Z,98918.53
2023-04-02T12:39:58.638Z,98919.75
2023-04-02T12:42:43.262Z,98919.53
2023-04-02T12:45:30.889Z,98925.16
2023-04-02T12:48:00.670Z,98959.72
2023-04-02T12:50:27.254Z,98915.53
2023-04-02T12:52:55.328Z,98916.78
2023-04-02T12:55:24.659Z,98922.59
2023-04-02T12:57:59.199Z,98923.84
2023-04-02T13:00:25.640Z,98921.25
2023-04-02T13:03:00.463Z,98931.66
2023-04-02T13:05:46.810Z,98931.59
2023-04-02T13:08:45.584Z,98937.31
2023-04-02T13:11:12.110Z,98922.34
2023-04-02T13:13:41.672Z,98913.44
2023-04-02T13:16:17.227Z,98921.56
2023-04-02T13:18:47.368Z,98927.88
2023-04-02T13:21:16.804Z,98920.34
2023-04-02T13:23:44.384Z,98927.63
2023-04-02T13:26:22.955Z,98928.00
2023-04-02T13:28:59.997Z,98931.78
2023-04-02T13:31:27.068Z,98931.34
2023-04-02T13:33:53.536Z,98926.19
2023-04-02T13:36:20.948Z,98924.56
2023-04-02T13:38:47.436Z,98921.09
2023-04-02T13:41:36.690Z,98929.13
2023-04-02T13:44:03.485Z,98933.91
2023-04-02T13:46:32.476Z,98919.16
2023-04-02T13:48:59.070Z,98924.13
2023-04-02T13:51:47.294Z,98928.72
2023-04-02T13:54:27.187Z,98924.91
2023-04-02T13:56:55.881Z,98935.13
2023-04-02T13:59:22.773Z,98927.84
2023-04-02T14:01:51.594Z,98925.50
2023-04-02T14:04:26.079Z,98931.06
2023-04-02T14:07:14.346Z,98926.38
2023-04-02T14:09:53.258Z,98934.13
2023-04-02T14:12:47.621Z,98930.47
2023-04-02T14:15:25.021Z,98930.47
2023-04-02T14:18:31.360Z,98925.28
2023-04-02T14:21:35.066Z,98940.78
2023-04-02T14:24:10.480Z,98940.66
2023-04-02T14:26:55.296Z,98932.09
2023-04-02T14:29:30.532Z,98935.09
2023-04-02T14:32:18.725Z,98928.50
2023-04-02T14:35:03.078Z,98926.97
2023-04-02T14:37:38.504Z,98933.13
2023-04-02T14:40:27.197Z,98933.78
2023-04-02T14:43:04.906Z,98936.72
2023-04-02T14:45:58.568Z,98940.28
2023-04-02T14:48:49.462Z,98942.78
2023-04-02T14:51:24.809Z,98938.84
2023-04-02T14:54:12.629Z,98946.25
2023-04-02T14:56:49.407Z,98944.84
2023-04-02T14:59:39.285Z,98942.25
2023-04-02T15:02:30.264Z,98939.94
2023-04-02T15:05:27.842Z,98955.31
2023-04-02T15:08:07.512Z,98942.91
2023-04-02T15:10:40.973Z,98950.66
2023-04-02T15:13:21.334Z,98953.50
2023-04-02T15:16:11.732Z,98948.53
2023-04-02T15:18:38.428Z,98956.66
2023-04-02T15:21:19.955Z,98958.38
2023-04-02T15:24:04.121Z,98952.59
2023-04-02T15:26:30.545Z,98950.38
2023-04-02T15:29:15.828Z,98952.09
2023-04-02T15:31:51.304Z,98956.66
2023-04-02T15:34:20.535Z,98952.47
2023-04-02T15:37:07.572Z,98952.78
2023-04-02T15:40:00.260Z,98955.53
2023-04-02T15:42:34.349Z,98951.81
2023-04-02T15:45:07.018Z,98956.78
2023-04-02T15:47:36.933Z,98953.13
2023-04-02T15:50:22.052Z,98956.03
2023-04-02T15:52:59.038Z,98955.97
2023-04-02T15:55:49.277Z,98962.09
2023-04-02T15:58:55.560Z,98955.88
2023-04-02T16:01:43.693Z,98964.06
2023-04-02T16:04:28.963Z,98963.03
2023-04-02T16:07:14.252Z,98970.94
2023-04-02T16:10:00.265Z,98965.97
2023-04-02T16:12:29.445Z,98967.06
2023-04-02T16:15:02.950Z,98971.19
2023-04-02T16:17:36.138Z,98970.22
2023-04-02T16:20:39.634Z,98975.97
2023-04-02T16:23:20.413Z,98965.34
2023-04-02T16:25:52.787Z,98968.47
2023-04-02T16:28:40.763Z,98985.03
2023-04-02T16:31:22.465Z,98989.16
2023-04-02T16:34:06.984Z,98998.47
2023-04-02T16:36:52.712Z,99002.75
2023-04-02T16:39:22.026Z,99003.41
2023-04-02T16:42:03.402Z,98998.97
2023-04-02T16:44:29.906Z,99002.22
2023-04-02T16:47:05.733Z,99002.63
2023-04-02T16:49:35.295Z,98993.78
2023-04-02T16:52:20.185Z,98999.94
2023-04-02T16:55:05.078Z,98997.53
2023-04-02T16:57:43.458Z,99011.63
2023-04-02T17:00:37.729Z,99011.47
2023-04-02T17:03:43.358Z,99019.72
2023-04-02T17:06:30.964Z,99020.75
2023-04-02T17:09:39.116Z,99035.00
2023-04-02T17:12:20.398Z,99025.53
2023-04-02T17:14:59.431Z,99028.28
2023-04-02T17:17:26.126Z,99026.13
2023-04-02T17:19:58.609Z,99034.63
2023-04-02T17:22:25.207Z,99031.81
2023-04-02T17:24:55.757Z,99034.25
2023-04-02T17:27:35.474Z,99033.06
2023-04-02T17:30:15.506Z,99036.09
2023-04-02T17:32:42.015Z,99035.13
2023-04-02T17:35:26.861Z,99034.31
2023-04-02T17:38:08.252Z,99041.78
2023-04-02T17:40:58.448Z,99042.19
2023-04-02T17:43:42.465Z,99038.78
2023-04-02T17:46:36.633Z,99045.44
2023-04-02T17:49:38.140Z,99046.22
2023-04-02T17:52:22.179Z,99057.38
2023-04-02T17:55:04.508Z,99051.09
2023-04-02T17:57:58.561Z,99052.13
2023-04-02T18:00:46.377Z,99052.31
2023-04-02T18:03:42.401Z,99054.75
2023-04-02T18:06:31.793Z,99059.22
2023-04-02T18:09:17.663Z,99056.16
2023-04-02T18:11:50.672Z,99062.06
2023-04-02T18:14:46.413Z,99061.25
2023-04-02T18:17:52.992Z,99059.25
2023-04-02T18:20:38.368Z,99057.44
2023-04-02T18:23:19.889Z,99070.16
2023-04-02T18:26:02.099Z,99065.72
2023-04-02T18:28:44.421Z,99064.53
2023-04-02T18:31:27.212Z,99063.50
2023-04-02T18:34:25.788Z,99059.88
2023-04-02T18:37:13.808Z,99059.88
2023-04-02T18:40:11.213Z,99061.28
2023-04-02T18:42:40.406Z,99060.50
2023-04-02T18:45:13.993Z,99060.50
2023-04-02T18:47:43.631Z,99062.91
2023-04-02T18:50:35.168Z,99057.28
2023-04-02T18:53:13.633Z,99061.31
2023-04-02T18:55:46.237Z,99066.75
2023-04-02T18:58:24.730Z,99066.56
2023-04-02T19:00:53.794Z,99065.34
2023-04-02T19:03:27.982Z,99061.09
2023-04-02T19:06:17.598Z,99057.25
2023-04-02T19:08:53.923Z,99062.06
2023-04-02T19:11:23.083Z,99060.44
2023-04-02T19:13:49.806Z,99059.63
2023-04-02T19:16:48.837Z,99066.66
2023-04-02T19:19:29.076Z,99066.47
2023-04-02T19:22:35.125Z,99064.03
2023-04-02T19:25:26.628Z,99069.66
2023-04-02T19:28:00.669Z,99071.69
2023-04-02T19:30:42.932Z,99067.47
2023-04-02T19:33:27.536Z,99061.44
2023-04-02T19:36:00.516Z,99059.00
2023-04-02T19:38:59.620Z,99061.00
2023-04-02T19:41:31.824Z,99052.34
2023-04-02T19:43:58.698Z,99057.59
2023-04-02T19:46:26.491Z,99055.59
2023-04-02T19:49:14.289Z,99052.78
2023-04-02T19:51:40.809Z,99051.97
2023-04-02T19:54:07.271Z,99057.63
2023-04-02T19:56:33.797Z,99051.97
2023-04-02T19:59:07.720Z,99057.41
2023-04-02T20:01:43.461Z,99052.34
2023-04-02T20:04:10.022Z,99047.91
2023-04-02T20:06:36.644Z,99048.34
2023-04-02T20:09:03.697Z,99050.34
2023-04-02T20:11:30.232Z,99046.31
2023-04-02T20:13:56.787Z,99049.53
2023-04-02T20:16:23.537Z,99043.06
2023-04-02T20:18:51.108Z,99049.50
2023-04-02T20:21:17.616Z,99045.88
2023-04-02T20:23:44.087Z,99051.53
2023-04-02T20:26:10.950Z,99044.31
2023-04-02T20:28:37.478Z,99046.28
2023-04-02T20:31:16.634Z,99041.88
2023-04-02T20:33:43.799Z,99043.31
2023-04-02T20:36:13.477Z,99049.59
2023-04-02T20:38:40.527Z,99042.75
2023-04-02T20:41:07.887Z,99051.81
2023-04-02T20:43:34.793Z,99047.19
2023-04-02T20:46:03.851Z,99049.81
2023-04-02T20:48:31.596Z,99042.34
2023-04-02T20:51:00.155Z,99043.56
2023-04-02T20:53:29.272Z,99041.75
2023-04-02T20:56:15.899Z,99040.72
2023-04-02T20:58:43.462Z,99039.47
2023-04-02T21:01:25.937Z,99039.06
2023-04-02T21:04:03.120Z,99030.59
2023-04-02T21:06:31.735Z,99037.66
2023-04-02T21:08:58.977Z,99032.63
2023-04-02T21:11:25.509Z,99035.84
2023-04-02T21:13:52.483Z,99037.25
2023-04-02T21:16:24.099Z,99030.81
2023-04-02T21:18:52.306Z,99030.19
2023-04-02T21:21:20.315Z,99030.19
2023-04-02T21:23:47.433Z,99025.75
2023-04-02T21:26:16.735Z,99027.16
2023-04-02T21:28:44.873Z,99022.53
2023-04-02T21:31:16.617Z,99020.53
2023-04-02T21:33:54.283Z,99020.31
2023-04-02T21:36:22.529Z,99022.53
2023-04-02T21:38:51.867Z,99019.72
2023-04-02T21:41:23.841Z,99016.06
2023-04-02T21:43:50.740Z,99023.94
2023-04-02T21:46:21.523Z,99017.69
2023-04-02T21:48:49.820Z,99023.53
2023-04-02T21:51:19.276Z,99018.66
2023-04-02T21:53:45.867Z,99019.69
2023-04-02T21:56:17.988Z,99018.47
2023-04-02T21:58:45.985Z,99020.91
2023-04-02T22:01:23.797Z,99020.69
2023-04-02T22:03:54.639Z,99018.25
2023-04-02T22:06:22.727Z,99022.84
2023-04-02T22:08:57.976Z,99026.06
2023-04-02T22:11:27.709Z,99025.78
2023-04-02T22:13:54.495Z,99029.19
2023-04-02T22:16:23.776Z,99033.19
2023-04-02T22:18:52.229Z,99030.19
2023-04-02T22:21:19.633Z,99032.38
2023-04-02T22:23:47.275Z,99038.56
2023-04-02T22:26:16.071Z,99026.03
2023-04-02T22:28:42.872Z,99027.44
2023-04-02T22:31:16.028Z,99023.34
2023-04-02T22:33:44.995Z,99024.06
2023-04-02T22:36:12.685Z,99020.97
2023-04-02T22:38:41.955Z,99025.81
2023-04-02T22:41:13.804Z,99020.69
2023-04-02T22:43:42.215Z,99023.72
2023-04-02T22:46:09.793Z,99018.97
2023-04-02T22:48:36.768Z,99020.63
2023-04-02T22:51:03.394Z,99028.50
2023-04-02T22:53:29.923Z,99023.69
2023-04-02T22:56:02.512Z,99025.13
2023-04-02T22:58:29.097Z,99019.88
2023-04-02T23:00:55.570Z,99022.28
2023-04-02T23:03:22.079Z,99024.28
2023-04-02T23:05:58.998Z,99027.72
2023-04-02T23:08:25.563Z,99015.44
2023-04-02T23:11:01.016Z,99024.50
2023-04-02T23:13:28.150Z,99033.34
2023-04-02T23:15:54.873Z,99019.84
2023-04-02T23:18:23.181Z,99022.28
2023-04-02T23:20:49.656Z,99020.66
2023-04-02T23:23:16.119Z,99022.28
2023-04-02T23:25:42.671Z,99020.66
2023-04-02T23:28:10.422Z,99025.69
2023-04-02T23:30:37.157Z,99022.69
2023-04-02T23:33:04.832Z,99023.50
2023-04-02T23:35:31.378Z,99022.50
2023-04-02T23:37:57.891Z,99021.88
2023-04-02T23:40:24.420Z,99020.47
2023-04-02T23:42:50.911Z,99018.84
2023-04-02T23:45:17.377Z,99015.44
2023-04-02T23:47:43.915Z,99016.97
2023-04-02T23:50:10.777Z,99012.13
2023-04-02T23:52:37.300Z,99011.28
2023-04-02T23:55:04.063Z,99015.28
2023-04-02T23:57:30.600Z,99006.00
2023-04-02T23:59:57.192Z,99017.34
